Time;durP1;ratioP1;P1;durP2;ratioP2;P2;SDS_P1;SDS_P2;PMS_P1;PMS_P2;Temp;Humidity;BMP_temperature;BMP_pressure;BME280_temperature;BME280_humidity;BME280_pressure;Samples;Min_cycle;Max_cycle;Signal;HPM_P1;HPM_P2
2021/05/31 00:01:07;;;;;;;;;;;12.90;99.90;;;;;;5076396;28;19921;-75
2021/05/31 00:03:33;;;;;;;;;;;12.90;99.90;;;;;;5076278;28;19924;-75
2021/05/31 00:05:59;;;;;;;;;;;12.80;99.90;;;;;;5076149;28;19959;-75
2021/05/31 00:08:26;;;;;;;;;;;12.70;99.90;;;;;;5076249;28;19928;-75
2021/05/31 00:10:53;;;;;;;;;;;12.70;99.90;;;;;;5076324;28;19932;-75
2021/05/31 00:13:19;;;;;;;;;;;12.60;99.90;;;;;;5076228;28;19920;-75
2021/05/31 00:15:46;;;;;;;;;;;12.60;99.90;;;;;;5076084;28;19973;-75
2021/05/31 00:18:12;;;;;;;;;;;12.50;99.90;;;;;;5075830;28;19920;-74
2021/05/31 00:20:39;;;;;;;;;;;12.40;99.90;;;;;;5075597;28;20252;-76
2021/05/31 00:23:05;;;;;;;;;;;12.40;99.90;;;;;;5075670;28;20348;-74
2021/05/31 00:25:31;;;;;;;;;;;12.30;99.90;;;;;;5075756;28;20347;-75
2021/05/31 00:27:59;;;;;;;;;;;12.30;99.90;;;;;;5075655;28;19920;-75
2021/05/31 00:30:25;;;;;;;;;;;12.20;99.90;;;;;;5075736;28;19920;-75
2021/05/31 00:32:52;;;;;;;;;;;12.20;99.90;;;;;;5075723;28;19953;-75
2021/05/31 00:35:18;;;;;;;;;;;12.20;99.90;;;;;;5074808;28;19973;-74
2021/05/31 00:37:44;;;;;;;;;;;12.20;99.90;;;;;;5075405;28;19927;-74
2021/05/31 00:40:11;;;;;;;;;;;12.20;99.90;;;;;;5075322;28;19921;-75
2021/05/31 00:42:37;;;;;;;;;;;12.10;99.90;;;;;;5075708;28;19974;-75
2021/05/31 00:45:05;;;;;;;;;;;12.10;99.90;;;;;;5075398;28;19932;-74
2021/05/31 00:47:32;;;;;;;;;;;12.00;99.90;;;;;;5075504;28;19931;-75
2021/05/31 00:49:58;;;;;;;;;;;12.00;99.90;;;;;;5075390;28;19920;-75
2021/05/31 00:52:24;;;;;;;;;;;11.90;99.90;;;;;;5075262;28;19920;-74
2021/05/31 00:54:51;;;;;;;;;;;11.90;99.90;;;;;;5075611;28;19920;-76
2021/05/31 00:57:17;;;;;;;;;;;11.80;99.90;;;;;;5075464;28;20256;-78
2021/05/31 00:59:43;;;;;;;;;;;11.70;99.90;;;;;;5076840;28;20019;-76
2021/05/31 01:02:11;;;;;;;;;;;11.60;99.90;;;;;;5075489;28;19920;-78
2021/05/31 01:04:37;;;;;;;;;;;11.60;99.90;;;;;;5075209;28;19920;-78
2021/05/31 01:07:05;;;;;;;;;;;11.70;99.90;;;;;;5075118;28;19938;-79
2021/05/31 01:09:34;;;;;;;;;;;11.70;99.90;;;;;;5075079;28;19920;-76
2021/05/31 01:12:02;;;;;;;;;;;11.70;99.90;;;;;;5077247;28;19932;-77
2021/05/31 01:14:30;;;;;;;;;;;11.70;99.90;;;;;;5075033;28;19982;-76
2021/05/31 01:16:57;;;;;;;;;;;11.60;99.90;;;;;;5075038;28;19920;-79
2021/05/31 01:19:28;;;;;;;;;;;11.60;99.90;;;;;;5074970;28;20030;-77
2021/05/31 01:22:00;;;;;;;;;;;11.50;99.90;;;;;;5074978;28;19947;-76
2021/05/31 01:24:31;;;;;;;;;;;11.40;99.90;;;;;;5074980;28;19920;-77
2021/05/31 01:27:00;;;;;;;;;;;11.40;99.90;;;;;;5075117;28;19921;-85
2021/05/31 01:29:28;;;;;;;;;;;11.20;99.90;;;;;;5074976;28;19920;-76
2021/05/31 01:31:55;;;;;;;;;;;11.20;99.90;;;;;;5074853;28;20336;-77
2021/05/31 01:34:22;;;;;;;;;;;11.20;99.90;;;;;;5074941;28;19990;-77
2021/05/31 01:36:49;;;;;;;;;;;11.20;99.90;;;;;;5075136;28;19931;-74
2021/05/31 01:39:18;;;;;;;;;;;11.20;99.90;;;;;;5074716;28;19928;-75
2021/05/31 01:41:44;;;;;;;;;;;11.10;99.90;;;;;;5074780;28;19924;-77
2021/05/31 01:44:10;;;;;;;;;;;11.10;99.90;;;;;;5074799;28;19920;-76
2021/05/31 01:46:38;;;;;;;;;;;11.10;99.90;;;;;;5076534;28;19931;-77
2021/05/31 01:49:05;;;;;;;;;;;11.00;99.90;;;;;;5078784;28;19920;-76
2021/05/31 01:51:31;;;;;;;;;;;11.00;99.90;;;;;;5078719;28;19950;-75
2021/05/31 01:53:58;;;;;;;;;;;11.00;99.90;;;;;;5078867;28;19920;-77
2021/05/31 01:56:24;;;;;;;;;;;11.00;99.90;;;;;;5078864;28;19935;-75
2021/05/31 01:58:51;;;;;;;;;;;11.10;99.90;;;;;;5078580;28;19921;-75
2021/05/31 02:01:17;;;;;;;;;;;11.20;99.90;;;;;;5078445;28;19920;-76
2021/05/31 02:03:45;;;;;;;;;;;11.20;99.90;;;;;;5078449;28;19934;-75
2021/05/31 02:06:11;;;;;;;;;;;11.10;99.90;;;;;;5078714;28;19928;-76
2021/05/31 02:08:37;;;;;;;;;;;11.00;99.90;;;;;;5078561;28;19927;-75
2021/05/31 02:11:07;;;;;;;;;;;11.00;99.90;;;;;;5078465;28;19924;-77
2021/05/31 02:13:33;;;;;;;;;;;11.00;99.90;;;;;;5078342;28;20004;-79
2021/05/31 02:16:01;;;;;;;;;;;10.90;99.90;;;;;;5078075;28;19920;-77
2021/05/31 02:18:30;;;;;;;;;;;10.90;99.90;;;;;;5080201;28;19931;-79
2021/05/31 02:21:02;;;;;;;;;;;10.80;99.90;;;;;;5095129;28;19927;-77
2021/05/31 02:23:28;;;;;;;;;;;10.80;99.90;;;;;;5098391;28;20369;-77
2021/05/31 02:25:54;;;;;;;;;;;10.80;99.90;;;;;;5098409;28;20279;-77
2021/05/31 02:28:21;;;;;;;;;;;10.90;99.90;;;;;;5098741;28;19992;-77
2021/05/31 02:30:47;;;;;;;;;;;10.90;99.90;;;;;;5098357;28;19923;-77
2021/05/31 02:33:13;;;;;;;;;;;11.00;99.90;;;;;;5098390;28;20255;-78
2021/05/31 02:35:40;;;;;;;;;;;11.00;99.90;;;;;;5098417;28;19973;-77
2021/05/31 02:38:07;;;;;;;;;;;10.90;99.90;;;;;;5098314;28;19930;-78
2021/05/31 02:40:34;;;;;;;;;;;11.00;99.90;;;;;;5097976;28;19924;-77
2021/05/31 02:43:01;;;;;;;;;;;10.90;99.90;;;;;;5098036;28;19920;-77
2021/05/31 02:45:27;;;;;;;;;;;10.80;99.90;;;;;;5098254;28;19973;-79
2021/05/31 02:47:54;;;;;;;;;;;10.80;99.90;;;;;;5097914;28;19934;-77
2021/05/31 02:50:21;;;;;;;;;;;10.70;99.90;;;;;;5097939;28;19920;-78
2021/05/31 02:52:47;;;;;;;;;;;10.70;99.90;;;;;;5098081;28;19926;-77
2021/05/31 02:55:15;;;;;;;;;;;10.70;99.90;;;;;;5097898;28;19939;-78
2021/05/31 02:57:42;;;;;;;;;;;10.60;99.90;;;;;;5096731;28;19927;-77
2021/05/31 03:00:09;;;;;;;;;;;10.60;99.90;;;;;;5097604;28;19920;-77
2021/05/31 03:02:35;;;;;;;;;;;10.60;99.90;;;;;;5097749;28;19920;-77
2021/05/31 03:05:02;;;;;;;;;;;10.50;99.90;;;;;;5097580;28;19920;-79
2021/05/31 03:07:28;;;;;;;;;;;10.50;99.90;;;;;;5097524;28;19928;-76
2021/05/31 03:09:54;;;;;;;;;;;10.50;99.90;;;;;;5097603;28;19919;-77
2021/05/31 03:12:22;;;;;;;;;;;10.50;99.90;;;;;;5097524;28;19927;-78
2021/05/31 03:14:49;;;;;;;;;;;10.50;99.90;;;;;;5097686;28;19920;-78
2021/05/31 03:17:15;;;;;;;;;;;10.40;99.90;;;;;;5097384;28;19931;-77
2021/05/31 03:19:42;;;;;;;;;;;10.40;99.90;;;;;;5097203;28;19927;-77
2021/05/31 03:22:08;;;;;;;;;;;10.30;99.90;;;;;;5097175;28;19928;-77
2021/05/31 03:24:34;;;;;;;;;;;10.30;99.90;;;;;;5097272;28;19920;-78
2021/05/31 03:27:02;;;;;;;;;;;10.30;99.90;;;;;;5097084;28;19977;-76
2021/05/31 03:29:30;;;;;;;;;;;10.30;99.90;;;;;;5097156;28;19927;-77
2021/05/31 03:31:56;;;;;;;;;;;10.30;99.90;;;;;;5097357;28;19919;-77
2021/05/31 03:34:22;;;;;;;;;;;10.30;99.90;;;;;;5097100;28;19920;-77
2021/05/31 03:36:49;;;;;;;;;;;10.30;99.90;;;;;;5097098;28;19932;-77
2021/05/31 03:39:15;;;;;;;;;;;10.30;99.90;;;;;;5096933;28;19920;-77
2021/05/31 03:41:41;;;;;;;;;;;10.30;99.90;;;;;;5095819;28;19980;-76
2021/05/31 03:44:08;;;;;;;;;;;10.30;99.90;;;;;;5097113;28;19930;-77
2021/05/31 03:46:35;;;;;;;;;;;10.30;99.90;;;;;;5097014;28;19924;-77
2021/05/31 03:49:02;;;;;;;;;;;10.20;99.90;;;;;;5096149;28;20344;-77
2021/05/31 03:51:28;;;;;;;;;;;10.20;99.90;;;;;;5096578;28;20344;-77
2021/05/31 03:53:54;;;;;;;;;;;10.20;99.90;;;;;;5096845;28;19920;-78
2021/05/31 03:56:21;;;;;;;;;;;10.10;99.90;;;;;;5096802;28;19924;-77
2021/05/31 03:58:48;;;;;;;;;;;10.10;99.90;;;;;;5096934;28;19984;-78
2021/05/31 04:01:15;;;;;;;;;;;10.10;99.90;;;;;;5096471;28;20351;-77
2021/05/31 04:03:43;;;;;;;;;;;10.00;99.90;;;;;;5096624;28;19946;-77
2021/05/31 04:06:19;;;;;;;;;;;10.00;99.90;;;;;;5096442;28;19969;-77
2021/05/31 04:11:36;;;;;;;;;;;10.00;99.90;;;;;;5096382;28;19923;-76
2021/05/31 04:14:03;;;;;;;;;;;10.00;99.90;;;;;;5096360;28;19969;-77
2021/05/31 04:16:29;;;;;;;;;;;10.00;99.90;;;;;;5096426;28;19950;-76
2021/05/31 04:18:57;;;;;;;;;;;10.00;99.90;;;;;;5096048;28;20396;-76
2021/05/31 04:21:23;;;;;;;;;;;10.00;99.90;;;;;;5095879;28;19920;-77
2021/05/31 04:23:50;;;;;;;;;;;10.00;99.90;;;;;;5096392;28;19920;-76
2021/05/31 04:26:16;;;;;;;;;;;10.10;99.90;;;;;;5096071;28;19928;-77
2021/05/31 04:28:42;;;;;;;;;;;10.10;99.90;;;;;;5096091;28;19927;-77
2021/05/31 04:31:09;;;;;;;;;;;10.00;99.90;;;;;;5095984;28;19920;-77
2021/05/31 04:33:35;;;;;;;;;;;10.00;99.90;;;;;;5096062;28;20064;-76
2021/05/31 04:36:03;;;;;;;;;;;10.00;99.90;;;;;;5095831;28;19920;-77
2021/05/31 04:38:29;;;;;;;;;;;10.00;99.90;;;;;;5095895;28;19928;-77
2021/05/31 04:40:55;;;;;;;;;;;10.00;99.90;;;;;;5095727;28;19920;-76
2021/05/31 04:43:22;;;;;;;;;;;10.00;99.90;;;;;;5095731;28;19919;-78
2021/05/31 04:45:48;;;;;;;;;;;10.00;99.90;;;;;;5095607;28;19930;-77
2021/05/31 04:48:15;;;;;;;;;;;10.00;99.90;;;;;;5095854;28;20317;-77
2021/05/31 04:50:41;;;;;;;;;;;10.00;99.90;;;;;;5095410;28;19949;-77
2021/05/31 04:53:09;;;;;;;;;;;10.00;99.90;;;;;;5095532;28;19919;-77
2021/05/31 04:55:36;;;;;;;;;;;10.00;99.90;;;;;;5095696;28;19930;-77
2021/05/31 04:58:03;;;;;;;;;;;10.00;99.90;;;;;;5095708;28;19920;-77
2021/05/31 05:00:29;;;;;;;;;;;10.00;99.90;;;;;;5095459;28;19946;-77
2021/05/31 05:02:55;;;;;;;;;;;10.10;99.90;;;;;;5095506;28;20400;-77
2021/05/31 05:05:22;;;;;;;;;;;10.10;99.90;;;;;;5095638;28;20332;-77
2021/05/31 05:07:48;;;;;;;;;;;10.10;99.90;;;;;;5095679;28;19920;-78
2021/05/31 05:10:17;;;;;;;;;;;10.20;99.90;;;;;;5095299;28;19924;-76
2021/05/31 05:12:43;;;;;;;;;;;10.20;99.90;;;;;;5095219;28;20347;-77
2021/05/31 05:15:10;;;;;;;;;;;10.20;99.90;;;;;;5095359;28;20245;-76
2021/05/31 05:17:36;;;;;;;;;;;10.20;99.90;;;;;;5095349;28;19981;-77
2021/05/31 05:20:03;;;;;;;;;;;10.30;99.90;;;;;;5095252;28;19927;-77
2021/05/31 05:22:30;;;;;;;;;;;10.30;99.90;;;;;;5094777;28;19984;-78
2021/05/31 05:24:56;;;;;;;;;;;10.40;99.90;;;;;;5095190;28;19920;-77
2021/05/31 05:27:24;;;;;;;;;;;10.40;99.90;;;;;;5095312;28;19920;-76
2021/05/31 05:29:50;;;;;;;;;;;10.50;99.90;;;;;;5095222;28;19920;-77
2021/05/31 05:32:17;;;;;;;;;;;10.50;99.90;;;;;;5095246;28;19920;-77
2021/05/31 05:34:43;;;;;;;;;;;10.60;99.90;;;;;;5095070;28;19924;-77
2021/05/31 05:37:12;;;;;;;;;;;10.70;99.90;;;;;;5095078;28;19980;-77
2021/05/31 05:40:04;;;;;;;;;;;10.70;99.90;;;;;;5094983;28;19920;-76
2021/05/31 05:42:45;;;;;;;;;;;10.90;99.90;;;;;;5095367;28;19928;-77
2021/05/31 05:47:59;;;;;;;;;;;11.10;99.90;;;;;;5069293;28;19927;-77
2021/05/31 05:50:25;;;;;;;;;;;11.30;99.90;;;;;;5095012;28;20011;-78
2021/05/31 05:52:53;;;;;;;;;;;11.40;99.90;;;;;;5095066;28;19931;-78
2021/05/31 05:55:19;;;;;;;;;;;11.50;99.90;;;;;;5094902;28;20041;-77
2021/05/31 05:57:47;;;;;;;;;;;11.70;99.90;;;;;;5095054;28;19927;-77
2021/05/31 06:00:14;;;;;;;;;;;11.80;99.90;;;;;;5094985;28;19949;-78
2021/05/31 06:02:41;;;;;;;;;;;12.00;99.90;;;;;;5094981;28;19928;-77
2021/05/31 06:05:08;;;;;;;;;;;12.10;99.90;;;;;;5095051;28;19920;-77
2021/05/31 06:07:34;;;;;;;;;;;12.20;99.90;;;;;;5094878;28;19920;-79
2021/05/31 06:10:00;;;;;;;;;;;12.40;99.90;;;;;;5095033;28;19920;-77
2021/05/31 06:12:27;;;;;;;;;;;12.50;99.90;;;;;;5094791;28;20015;-75
2021/05/31 06:14:54;;;;;;;;;;;12.60;99.90;;;;;;5094754;28;19980;-76
2021/05/31 06:17:21;;;;;;;;;;;12.70;99.90;;;;;;5094838;28;19931;-75
2021/05/31 06:19:47;;;;;;;;;;;12.90;99.90;;;;;;5094739;28;19927;-76
2021/05/31 06:22:13;;;;;;;;;;;13.10;99.90;;;;;;5094567;28;19919;-76
2021/05/31 06:24:40;;;;;;;;;;;13.30;99.90;;;;;;5094766;28;19984;-75
2021/05/31 06:27:06;;;;;;;;;;;13.40;99.90;;;;;;5094514;28;19930;-75
2021/05/31 06:29:33;;;;;;;;;;;13.60;99.90;;;;;;5094709;28;19927;-75
2021/05/31 06:32:00;;;;;;;;;;;13.80;99.90;;;;;;5094638;28;19970;-75
2021/05/31 06:34:27;;;;;;;9.57;5.75;;;14.00;99.90;;;;;;5096170;28;20417;-74
2021/05/31 06:36:55;;;;;;;6.57;4.43;;;14.40;99.90;;;;;;5097827;28;20048;-74
2021/05/31 06:39:22;;;;;;;7.72;5.20;;;14.60;99.90;;;;;;5097564;28;20068;-74
2021/05/31 06:41:49;;;;;;;7.55;4.38;;;14.90;99.90;;;;;;5097902;28;20055;-75
2021/05/31 06:44:15;;;;;;;7.25;5.13;;;15.30;99.90;;;;;;5097670;28;20048;-75
2021/05/31 06:46:43;;;;;;;9.50;4.55;;;15.80;99.90;;;;;;5097670;28;20044;-74
2021/05/31 06:49:11;;;;;;;7.68;4.63;;;16.30;99.90;;;;;;5097637;28;20109;-75
2021/05/31 06:51:37;;;;;;;7.88;5.20;;;16.80;99.90;;;;;;5097446;28;20048;-74
2021/05/31 06:54:04;;;;;;;8.80;4.57;;;17.40;99.90;;;;;;5097333;28;20062;-75
2021/05/31 06:56:31;;;;;;;6.82;3.92;;;17.90;99.90;;;;;;5097579;28;20127;-75
2021/05/31 06:58:57;;;;;;;6.53;3.63;;;18.40;99.90;;;;;;5097373;28;20060;-75
2021/05/31 07:01:24;;;;;;;8.55;4.50;;;18.70;99.90;;;;;;5097490;28;20048;-75
2021/05/31 07:03:51;;;;;;;8.02;4.10;;;19.00;99.90;;;;;;5097176;28;20048;-74
2021/05/31 07:06:19;;;;;;;5.60;4.18;;;19.40;99.90;;;;;;5097129;28;20505;-75
2021/05/31 07:08:45;;;;;;;5.03;3.85;;;20.30;99.90;;;;;;5097177;28;20391;-75
2021/05/31 07:11:14;;;;;;;7.03;4.03;;;21.90;99.90;;;;;;5097316;28;20109;-75
2021/05/31 07:13:41;;;;;;;4.85;3.22;;;23.90;96.50;;;;;;5097130;28;20051;-75
2021/05/31 07:16:09;;;;;;;5.85;3.97;;;25.60;84.40;;;;;;5097070;28;20074;-75
2021/05/31 07:18:35;;;;;;;5.15;3.72;;;26.70;72.80;;;;;;5096904;28;20095;-75
2021/05/31 07:21:02;;;;;;;6.80;4.43;;;28.10;62.30;;;;;;5096709;28;20056;-76
2021/05/31 07:23:30;;;;;;;5.45;3.50;;;28.50;55.30;;;;;;5096893;28;20117;-75
2021/05/31 07:25:56;;;;;;;7.05;3.88;;;29.10;55.50;;;;;;5096863;28;20048;-75
2021/05/31 07:28:23;;;;;;;8.40;4.60;;;29.70;54.70;;;;;;5096794;28;20372;-76
2021/05/31 07:30:50;;;;;;;4.80;3.60;;;30.40;52.40;;;;;;5096849;28;20044;-76
2021/05/31 07:33:17;;;;;;;6.45;4.45;;;30.90;47.80;;;;;;5096866;28;20066;-76
2021/05/31 07:35:43;;;;;;;5.90;3.90;;;31.10;49.40;;;;;;5096511;28;20056;-76
2021/05/31 07:38:10;;;;;;;4.70;3.83;;;31.60;48.70;;;;;;5096456;28;20108;-76
2021/05/31 07:40:38;;;;;;;4.13;3.45;;;32.30;46.80;;;;;;5096403;28;20044;-76
2021/05/31 07:43:04;;;;;;;4.65;3.90;;;32.40;46.60;;;;;;5096659;28;20074;-76
2021/05/31 07:45:31;;;;;;;4.32;3.55;;;32.50;46.50;;;;;;5096233;28;20047;-77
2021/05/31 07:47:58;;;;;;;4.68;3.20;;;32.70;44.60;;;;;;5096552;28;20058;-76
2021/05/31 07:50:24;;;;;;;4.50;3.30;;;33.10;45.30;;;;;;5096284;28;20048;-77
2021/05/31 07:52:51;;;;;;;4.68;3.97;;;33.30;43.80;;;;;;5096259;28;20121;-77
2021/05/31 07:55:18;;;;;;;5.25;3.45;;;33.30;43.90;;;;;;5096182;28;20048;-77
2021/05/31 07:57:46;;;;;;;5.00;3.60;;;33.60;43.70;;;;;;5096183;28;20044;-77
2021/05/31 08:00:15;;;;;;;4.05;3.65;;;33.80;43.80;;;;;;5096153;28;20090;-77
2021/05/31 08:02:43;;;;;;;4.07;3.47;;;33.90;42.50;;;;;;5096600;28;20048;-77
2021/05/31 08:05:11;;;;;;;5.47;3.75;;;34.20;42.60;;;;;;5096157;28;20372;-76
2021/05/31 08:07:38;;;;;;;5.57;3.97;;;34.30;41.60;;;;;;5095785;28;20055;-77
2021/05/31 08:10:05;;;;;;;5.72;4.07;;;34.80;41.30;;;;;;5096030;28;20387;-77
2021/05/31 08:12:33;;;;;;;4.72;3.88;;;34.90;40.90;;;;;;5095888;28;20469;-77
2021/05/31 08:15:01;;;;;;;4.85;3.88;;;35.00;40.70;;;;;;5095776;28;20048;-77
2021/05/31 08:17:28;;;;;;;4.68;3.47;;;35.10;40.20;;;;;;5095782;28;20048;-77
2021/05/31 08:19:54;;;;;;;4.78;3.30;;;35.20;40.50;;;;;;5095687;28;20048;-77
2021/05/31 08:22:21;;;;;;;6.30;3.88;;;34.70;40.60;;;;;;5095681;28;20066;-77
2021/05/31 08:24:48;;;;;;;5.38;4.28;;;34.00;40.80;;;;;;5095576;28;20059;-76
2021/05/31 08:27:15;;;;;;;6.88;4.40;;;32.20;41.70;;;;;;5095680;28;20079;-76
2021/05/31 08:29:41;;;;;;;5.60;3.80;;;29.90;43.80;;;;;;5095541;28;20081;-76
2021/05/31 08:32:09;;;;;;;4.82;4.10;;;28.00;46.60;;;;;;5095445;28;20486;-73
2021/05/31 08:34:36;;;;;;;7.10;4.03;;;26.30;49.70;;;;;;5095426;28;20052;-71
2021/05/31 08:37:03;;;;;;;6.65;3.92;;;25.30;51.90;;;;;;5095384;28;20048;-71
2021/05/31 08:39:29;;;;;;;6.72;5.05;;;24.90;51.90;;;;;;5095300;28;20468;-71
2021/05/31 08:41:56;;;;;;;5.75;4.43;;;24.60;52.30;;;;;;5095460;28;20054;-71
2021/05/31 08:44:22;;;;;;;5.88;4.32;;;23.90;53.20;;;;;;5095507;28;20059;-71
2021/05/31 08:46:49;;;;;;;6.30;4.53;;;23.10;54.10;;;;;;5095223;28;20460;-71
2021/05/31 08:49:18;;;;;;;7.97;4.68;;;22.40;55.60;;;;;;5095439;28;20048;-71
2021/05/31 08:51:44;;;;;;;7.07;4.03;;;21.60;58.00;;;;;;5095096;28;20101;-71
2021/05/31 08:54:11;;;;;;;6.97;4.43;;;20.80;59.40;;;;;;5095248;28;20104;-71
2021/05/31 08:56:37;;;;;;;7.90;4.65;;;20.30;64.50;;;;;;5094208;28;20133;-71
2021/05/31 08:59:04;;;;;;;5.97;3.97;;;19.90;65.10;;;;;;5095046;28;20048;-71
2021/05/31 09:01:31;;;;;;;6.32;4.30;;;19.50;68.50;;;;;;5094914;28;20052;-70
2021/05/31 09:03:57;;;;;;;8.40;4.45;;;19.30;76.80;;;;;;5094331;28;20052;-70
2021/05/31 09:06:26;;;;;;;7.95;4.47;;;19.10;79.00;;;;;;5094894;28;20365;-70
2021/05/31 09:08:54;;;;;;;11.02;4.90;;;18.90;90.40;;;;;;5095054;28;20098;-70
2021/05/31 09:11:21;;;;;;;9.50;4.30;;;18.70;94.20;;;;;;5094732;28;20395;-70
2021/05/31 09:13:48;;;;;;;8.00;5.50;;;18.50;96.80;;;;;;5094706;28;20372;-70
2021/05/31 09:16:16;;;;;;;8.60;4.90;;;18.50;99.90;;;;;;5094740;28;20539;-70
2021/05/31 09:18:46;;;;;;;9.40;5.72;;;18.50;98.90;;;;;;5094769;28;20453;-71
2021/05/31 09:21:14;;;;;;;7.50;4.68;;;18.30;99.90;;;;;;5094525;28;20052;-70
2021/05/31 09:23:42;;;;;;;12.30;6.57;;;18.20;99.50;;;;;;5094703;28;20369;-70
2021/05/31 09:26:09;;;;;;;8.45;5.38;;;18.10;99.90;;;;;;5094354;28;20048;-70
2021/05/31 09:28:35;;;;;;;;;;;18.00;99.90;;;;;;5094525;28;20142;-70
2021/05/31 09:31:12;;;;;;;;;;;18.10;99.90;;;;;;5094682;28;20019;-70
2021/05/31 09:33:39;;;;;;;;;;;18.00;99.90;;;;;;5095110;28;19971;-70
2021/05/31 09:36:07;;;;;;;;;;;18.00;99.90;;;;;;5094991;28;19936;-70
2021/05/31 09:38:33;;;;;;;;;;;18.00;99.90;;;;;;5094988;28;20005;-70
2021/05/31 09:41:01;;;;;;;;;;;18.00;99.90;;;;;;5094974;28;20315;-70
2021/05/31 09:43:31;;;;;;;;;;;18.00;99.90;;;;;;5094883;28;19924;-70
2021/05/31 09:45:57;;;;;;;;;;;18.00;99.90;;;;;;5095255;28;19924;-70
2021/05/31 09:48:32;;;;;;;;;;;18.00;99.90;;;;;;5095209;28;19924;-70
2021/05/31 09:50:59;;;;;;;;;;;18.00;99.90;;;;;;5094910;28;19924;-70
2021/05/31 09:53:34;;;;;;;;;;;18.00;99.90;;;;;;5094963;28;19974;-70
2021/05/31 09:56:12;;;;;;;;;;;18.00;99.90;;;;;;5094813;28;19972;-70
2021/05/31 09:58:45;;;;;;;;;;;18.00;99.90;;;;;;5095099;28;19924;-70
2021/05/31 10:01:12;;;;;;;;;;;17.90;99.90;;;;;;5094825;28;19924;-70
2021/05/31 10:03:51;;;;;;;;;;;17.90;99.90;;;;;;5095014;28;19932;-70
2021/05/31 10:06:21;;;;;;;;;;;17.90;99.90;;;;;;5094793;28;19924;-70
2021/05/31 10:08:47;;;;;;;;;;;17.90;99.90;;;;;;5098538;28;20027;-70
2021/05/31 10:11:15;;;;;;;;;;;17.90;99.90;;;;;;5098667;28;19928;-70
2021/05/31 10:13:42;;;;;;;;;;;17.90;99.90;;;;;;5098758;28;19931;-70
2021/05/31 10:16:08;;;;;;;;;;;17.90;99.90;;;;;;5098689;28;19924;-70
2021/05/31 10:18:37;;;;;;;;;;;18.00;99.90;;;;;;5093319;28;19936;-71
2021/05/31 10:21:03;;;;;;;;;;;18.00;99.90;;;;;;5097951;28;19924;-70
2021/05/31 10:23:31;;;;;;;;;;;18.00;99.90;;;;;;5098800;28;19971;-70
2021/05/31 10:26:00;;;;;;;;;;;18.00;99.90;;;;;;5098068;28;19924;-70
2021/05/31 10:28:30;;;;;;;;;;;18.00;99.90;;;;;;5098354;28;19924;-70
2021/05/31 10:31:00;;;;;;;;;;;18.00;99.90;;;;;;5098331;28;19932;-70
2021/05/31 10:33:27;;;;;;;;;;;18.00;99.90;;;;;;5097711;28;20263;-70
2021/05/31 10:35:59;;;;;;;;;;;17.90;99.90;;;;;;5097900;28;19928;-70
2021/05/31 10:38:27;;;;;;;;;;;17.80;99.90;;;;;;5097209;28;20391;-70
2021/05/31 10:40:54;;;;;;;;;;;17.80;99.90;;;;;;5098191;28;19924;-70
2021/05/31 10:43:21;;;;;;;;;;;17.80;99.90;;;;;;5098122;28;20420;-70
2021/05/31 10:45:49;;;;;;;;;;;17.90;99.90;;;;;;5098011;28;19924;-70
2021/05/31 10:48:16;;;;;;;;;;;18.00;99.90;;;;;;5097919;28;19928;-70
2021/05/31 10:50:43;;;;;;;;;;;18.00;99.90;;;;;;5097914;28;19936;-70
2021/05/31 10:53:19;;;;;;;;;;;18.10;99.90;;;;;;5098073;28;19989;-70
2021/05/31 10:55:49;;;;;;;;;;;18.10;99.90;;;;;;5097824;28;20379;-70
2021/05/31 10:58:15;;;;;;;;;;;18.20;99.90;;;;;;5097249;28;20065;-70
2021/05/31 11:00:41;;;;;;;;;;;18.20;99.90;;;;;;5097581;28;19924;-71
2021/05/31 11:03:10;;;;;;;;;;;18.20;99.90;;;;;;5097663;28;19932;-70
2021/05/31 11:05:36;;;;;;;;;;;18.20;99.90;;;;;;5097419;28;20003;-70
2021/05/31 11:08:04;;;;;;;;;;;18.20;99.90;;;;;;5097547;28;19974;-70
2021/05/31 11:10:31;;;;;;;;;;;18.20;99.90;;;;;;5097519;28;19978;-70
2021/05/31 11:13:08;;;;;;;;;;;18.20;99.90;;;;;;5097543;28;19932;-70
2021/05/31 11:15:34;;;;;;;;;;;18.20;99.90;;;;;;5097521;28;19924;-70
2021/05/31 11:18:01;;;;;;;;;;;18.30;99.90;;;;;;5097511;28;19924;-70
2021/05/31 11:20:29;;;;;;;;;;;18.30;99.90;;;;;;5096815;28;19924;-70
2021/05/31 11:22:56;;;;;;;;;;;18.40;99.90;;;;;;5097280;28;19924;-69
2021/05/31 11:25:23;;;;;;;;;;;18.40;99.90;;;;;;5097370;28;19985;-70
2021/05/31 11:27:53;;;;;;;;;;;18.50;99.90;;;;;;5097420;28;19935;-70
2021/05/31 11:30:21;;;;;;;;;;;18.50;99.90;;;;;;5097243;28;19947;-70
2021/05/31 11:32:48;;;;;;;;;;;18.50;99.90;;;;;;5097127;28;19931;-70
2021/05/31 11:35:15;;;;;;;;;;;18.50;99.90;;;;;;5096008;28;19931;-69
2021/05/31 11:37:43;;;;;;;;;;;18.50;99.90;;;;;;5097062;28;20080;-70
2021/05/31 11:40:15;;;;;;;;;;;18.50;99.90;;;;;;5097050;28;19999;-69
2021/05/31 11:42:43;;;;;;;;;;;18.60;99.90;;;;;;5096978;28;20264;-69
2021/05/31 11:45:10;;;;;;;;;;;18.60;99.90;;;;;;5096889;28;19924;-69
2021/05/31 11:47:36;;;;;;;;;;;18.70;99.90;;;;;;5096821;28;20363;-69
2021/05/31 11:50:04;;;;;;;;;;;18.70;99.90;;;;;;5096843;28;19924;-74
2021/05/31 11:52:30;;;;;;;;;;;18.70;99.90;;;;;;5096803;28;20322;-76
2021/05/31 11:54:58;;;;;;;;;;;18.70;99.90;;;;;;5096847;28;19946;-74
2021/05/31 11:57:25;;;;;;;;;;;18.70;99.90;;;;;;5094939;28;19924;-74
2021/05/31 11:59:52;;;;;;;;;;;18.70;99.90;;;;;;5096042;28;19928;-74
2021/05/31 12:02:19;;;;;;;;;;;18.70;99.90;;;;;;5096300;28;19932;-74
2021/05/31 12:04:45;;;;;;;;;;;18.70;99.90;;;;;;5096695;28;19993;-74
2021/05/31 12:07:12;;;;;;;;;;;18.70;99.90;;;;;;5096674;28;20319;-73
2021/05/31 12:09:39;;;;;;;;;;;18.70;99.90;;;;;;5096267;28;20336;-73
2021/05/31 12:12:07;;;;;;;;;;;18.70;99.90;;;;;;5096210;28;20340;-73
2021/05/31 12:14:41;;;;;;;;;;;18.70;99.90;;;;;;5096553;28;19989;-72
2021/05/31 12:17:10;;;;;;;;;;;18.70;99.90;;;;;;5096526;28;19997;-73
2021/05/31 12:19:36;;;;;;;;;;;18.70;99.90;;;;;;5096254;28;19935;-74
2021/05/31 12:22:03;;;;;;;;;;;18.80;99.90;;;;;;5095888;28;19935;-73
2021/05/31 12:24:30;;;;;;;;;;;18.90;99.90;;;;;;5095911;28;19924;-74
2021/05/31 12:26:58;;;;;;;;;;;19.00;99.90;;;;;;5095975;28;19924;-74
2021/05/31 12:29:35;;;;;;;;;;;19.10;99.90;;;;;;5095675;28;19935;-73
2021/05/31 12:32:02;;;;;;;;;;;19.10;99.90;;;;;;5095220;28;19989;-73
2021/05/31 12:34:29;;;;;;;;;;;19.20;99.90;;;;;;5096058;28;19924;-74
2021/05/31 12:36:55;;;;;;;;;;;19.20;99.90;;;;;;5096010;28;19924;-73
2021/05/31 12:39:21;;;;;;;;;;;19.20;99.90;;;;;;5096094;28;20287;-73
2021/05/31 12:41:48;;;;;;;;;;;19.20;99.90;;;;;;5095883;28;19924;-74
2021/05/31 12:44:14;;;;;;;;;;;19.30;99.90;;;;;;5095896;28;19934;-73
2021/05/31 12:46:42;;;;;;;;;;;19.30;99.90;;;;;;5095773;28;20260;-74
2021/05/31 12:49:08;;;;;;;;;;;19.40;99.90;;;;;;5095718;28;19924;-74
2021/05/31 12:51:35;;;;;;;;;;;19.30;99.30;;;;;;5095615;28;19934;-73
2021/05/31 12:54:01;;;;;;;;;;;19.30;99.90;;;;;;5095787;28;19924;-74
2021/05/31 12:56:29;;;;;;;;;;;19.30;99.90;;;;;;5095695;28;19924;-74
2021/05/31 12:59:05;;;;;;;;;;;19.30;99.90;;;;;;5095722;28;19938;-74
2021/05/31 13:01:31;;;;;;;;;;;19.30;99.90;;;;;;5095468;28;20332;-73
2021/05/31 13:03:59;;;;;;;;;;;19.30;99.90;;;;;;5095429;28;20018;-73
2021/05/31 13:06:32;;;;;;;;;;;19.40;99.90;;;;;;5095347;28;19935;-74
2021/05/31 13:08:58;;;;;;;;;;;19.50;99.90;;;;;;5095553;28;19935;-73
2021/05/31 13:11:24;;;;;;;;;;;19.50;99.90;;;;;;5095458;28;19931;-73
2021/05/31 13:13:51;;;;;;;;;;;19.60;98.60;;;;;;5095466;28;20318;-74
2021/05/31 13:16:26;;;;;;;;;;;19.60;99.10;;;;;;5095366;28;19985;-75
2021/05/31 13:18:53;;;;;;;;;;;19.60;99.00;;;;;;5095315;28;19928;-73
2021/05/31 13:21:20;;;;;;;;;;;19.60;98.60;;;;;;5095177;28;19924;-75
2021/05/31 13:23:47;;;;;;;;;;;19.60;98.10;;;;;;5095431;28;19970;-74
2021/05/31 13:26:14;;;;;;;;;;;19.60;97.90;;;;;;5095292;28;19924;-74
2021/05/31 13:28:41;;;;;;;;;;;19.60;99.20;;;;;;5095207;28;19923;-74
2021/05/31 13:31:08;;;;;;;;;;;19.60;98.80;;;;;;5095301;28;19924;-74
2021/05/31 13:33:40;;;;;;;;;;;19.70;99.90;;;;;;5095080;28;19932;-74
2021/05/31 13:36:11;;;;;;;;;;;19.70;99.30;;;;;;5095132;28;19989;-73
2021/05/31 13:38:39;;;;;;;;;;;19.70;99.20;;;;;;5096082;28;20294;-82
2021/05/31 13:41:05;;;;;;;;;;;19.70;99.90;;;;;;5097735;28;19946;-75
2021/05/31 13:43:34;;;;;;;;;;;19.70;99.30;;;;;;5099579;28;19924;-76
2021/05/31 13:46:00;;;;;;;;;;;19.80;99.90;;;;;;5099251;28;19924;-75
2021/05/31 13:48:27;;;;;;;;;;;19.80;99.90;;;;;;5102036;28;19992;-82
2021/05/31 13:50:55;;;;;;;;;;;19.80;99.60;;;;;;5099762;28;19924;-81
2021/05/31 13:53:21;;;;;;;;;;;19.80;99.90;;;;;;5100142;28;19987;-77
2021/05/31 13:55:49;;;;;;;;;;;19.80;99.90;;;;;;5099187;28;20317;-74
2021/05/31 13:58:16;;;;;;;;;;;19.80;99.90;;;;;;5099257;28;19936;-81
2021/05/31 14:00:42;;;;;;;;;;;19.70;99.90;;;;;;5098826;28;19939;-77
2021/05/31 14:03:09;;;;;;;;;;;19.80;99.90;;;;;;5099055;28;19934;-74